createdAt,value
2018-04-24T00:00:29.054Z,9.85
2018-04-24T00:03:34.265Z,9.86
2018-04-24T00:06:39.990Z,9.83
2018-04-24T00:09:45.262Z,9.84
2018-04-24T00:12:50.060Z,9.80
2018-04-24T00:15:55.011Z,9.83
2018-04-24T00:19:01.312Z,9.89
2018-04-24T00:22:07.361Z,9.94
2018-04-24T00:25:13.372Z,9.96
2018-04-24T00:28:19.471Z,9.91
2018-04-24T00:31:25.317Z,9.93
2018-04-24T00:34:31.456Z,9.91
2018-04-24T00:37:37.385Z,9.94
2018-04-24T00:40:43.596Z,9.96
2018-04-24T00:43:49.475Z,9.99
2018-04-24T00:46:55.471Z,9.97
2018-04-24T00:50:00.667Z,10.00
2018-04-24T00:53:17.917Z,9.97
2018-04-24T00:56:23.573Z,9.96
2018-04-24T00:59:29.410Z,9.88
2018-04-24T01:02:34.642Z,9.80
2018-04-24T01:05:39.545Z,9.75
2018-04-24T01:08:45.554Z,9.72
2018-04-24T01:11:51.554Z,9.68
2018-04-24T01:14:57.371Z,9.69
2018-04-24T01:18:02.575Z,9.67
2018-04-24T01:21:07.759Z,9.72
2018-04-24T01:24:13.350Z,9.69
2018-04-24T01:27:19.472Z,9.71
2018-04-24T01:30:25.481Z,9.77
2018-04-24T01:33:31.620Z,9.81
2018-04-24T01:36:37.670Z,9.91
2018-04-24T01:39:44.722Z,9.94
2018-04-24T01:42:50.641Z,9.93
2018-04-24T01:45:55.950Z,9.94
2018-04-24T01:49:01.819Z,9.93
2018-04-24T01:52:06.802Z,9.93
2018-04-24T01:55:11.760Z,9.93
2018-04-24T01:58:17.416Z,9.97
2018-04-24T02:01:22.342Z,9.96
2018-04-24T02:04:28.320Z,9.96
2018-04-24T02:07:33.623Z,9.98
2018-04-24T02:10:38.889Z,10.01
2018-04-24T02:13:44.860Z,10.04
2018-04-24T02:16:50.991Z,10.03
2018-04-24T02:19:56.906Z,10.04
2018-04-24T02:23:02.831Z,10.06
2018-04-24T02:26:08.104Z,10.07
2018-04-24T02:29:13.361Z,10.08
2018-04-24T02:32:18.405Z,10.09
2018-04-24T02:35:23.680Z,10.12
2018-04-24T02:38:29.624Z,10.12
2018-04-24T02:41:35.441Z,10.14
2018-04-24T02:44:40.706Z,10.15
2018-04-24T02:47:47.917Z,10.14
2018-04-24T02:50:53.796Z,10.18
2018-04-24T02:53:59.900Z,10.17
2018-04-24T02:57:05.988Z,10.19
2018-04-24T03:00:11.926Z,10.18
2018-04-24T03:03:18.134Z,10.19
2018-04-24T03:06:24.116Z,10.19
2018-04-24T03:09:29.180Z,10.20
2018-04-24T03:12:34.473Z,10.20
2018-04-24T03:15:39.740Z,10.21
2018-04-24T03:18:44.733Z,10.24
2018-04-24T03:21:50.819Z,10.23
2018-04-24T03:24:56.879Z,10.24
2018-04-24T03:28:02.901Z,10.25
2018-04-24T03:31:08.516Z,10.23
2018-04-24T03:34:14.629Z,10.24
2018-04-24T03:37:20.743Z,10.24
2018-04-24T03:40:26.352Z,10.26
2018-04-24T03:43:32.482Z,10.26
2018-04-24T03:46:38.554Z,10.27
2018-04-24T03:49:43.833Z,10.28
2018-04-24T03:52:49.725Z,10.29
2018-04-24T03:55:54.998Z,10.29
2018-04-24T03:59:01.284Z,10.28
2018-04-24T04:02:07.376Z,10.30
2018-04-24T04:05:13.557Z,10.29
2018-04-24T04:08:19.608Z,10.30
2018-04-24T04:11:25.044Z,10.31
2018-04-24T04:14:30.308Z,10.32
2018-04-24T04:17:48.764Z,10.32
2018-04-24T04:21:05.297Z,10.31
2018-04-24T04:27:52.065Z,10.33
2018-04-24T04:30:58.028Z,10.34
2018-04-24T04:34:03.629Z,10.38
2018-04-24T04:37:10.261Z,10.37
2018-04-24T04:40:16.110Z,10.38
2018-04-24T04:43:21.936Z,10.39
2018-04-24T04:46:27.901Z,10.40
2018-04-24T04:49:33.723Z,10.42
2018-04-24T04:52:39.921Z,10.44
2018-04-24T04:55:45.825Z,10.45
2018-04-24T04:58:51.701Z,10.47
2018-04-24T05:01:57.890Z,10.49
2018-04-24T05:05:03.823Z,10.52
2018-04-24T05:08:09.732Z,10.55
2018-04-24T05:11:15.221Z,10.58
2018-04-24T05:14:21.407Z,10.61
2018-04-24T05:17:27.664Z,10.66
2018-04-24T05:20:33.798Z,10.70
2018-04-24T05:23:39.708Z,10.73
2018-04-24T05:26:44.994Z,10.77
2018-04-24T05:29:51.180Z,10.81
2018-04-24T05:32:57.149Z,10.85
2018-04-24T05:36:03.125Z,10.88
2018-04-24T05:39:08.880Z,10.91
2018-04-24T05:42:14.161Z,10.95
2018-04-24T05:45:19.467Z,10.99
2018-04-24T05:48:25.309Z,11.01
2018-04-24T05:51:30.003Z,11.04
2018-04-24T05:54:35.996Z,11.07
2018-04-24T05:57:42.237Z,11.10
2018-04-24T06:00:48.440Z,11.12
2018-04-24T06:03:54.267Z,11.15
2018-04-24T06:06:59.529Z,11.19
2018-04-24T06:10:05.309Z,11.22
2018-04-24T06:13:11.001Z,11.26
2018-04-24T06:16:16.277Z,11.28
2018-04-24T06:19:22.200Z,11.31
2018-04-24T06:22:28.483Z,11.35
2018-04-24T06:25:33.465Z,11.38
2018-04-24T06:28:39.671Z,11.40
2018-04-24T06:31:45.866Z,11.43
2018-04-24T06:34:51.137Z,11.46
2018-04-24T06:37:56.411Z,11.48
2018-04-24T06:41:02.213Z,11.50
2018-04-24T06:44:07.504Z,11.52
2018-04-24T06:47:12.775Z,11.53
2018-04-24T06:50:18.038Z,11.55
2018-04-24T06:53:23.323Z,11.57
2018-04-24T06:56:28.598Z,11.59
2018-04-24T06:59:34.606Z,11.61
2018-04-24T07:02:40.462Z,11.64
2018-04-24T07:05:46.661Z,11.68
2018-04-24T07:08:51.925Z,11.72
2018-04-24T07:11:58.211Z,11.75
2018-04-24T07:15:04.112Z,11.79
2018-04-24T07:18:10.198Z,11.83
2018-04-24T07:21:15.901Z,11.86
2018-04-24T07:24:22.096Z,11.88
2018-04-24T07:27:27.434Z,11.91
2018-04-24T07:30:33.335Z,11.93
2018-04-24T07:33:38.621Z,11.96
2018-04-24T07:36:43.916Z,11.98
2018-04-24T07:39:49.202Z,11.99
2018-04-24T07:42:54.478Z,12.00
2018-04-24T07:45:59.760Z,12.01
2018-04-24T07:49:05.029Z,12.01
2018-04-24T07:52:11.265Z,12.01
2018-04-24T07:55:17.555Z,12.01
2018-04-24T07:58:23.449Z,12.01
2018-04-24T08:01:29.645Z,12.02
2018-04-24T08:04:35.837Z,12.01
2018-04-24T08:07:41.205Z,12.02
2018-04-24T08:10:46.802Z,12.03
2018-04-24T08:13:52.081Z,12.05
2018-04-24T08:16:58.179Z,12.06
2018-04-24T08:20:03.852Z,12.08
2018-04-24T08:23:09.897Z,12.10
2018-04-24T08:26:15.722Z,12.12
2018-04-24T08:29:21.715Z,12.14
2018-04-24T08:32:27.974Z,12.15
2018-04-24T08:35:34.185Z,12.16
2018-04-24T08:38:40.301Z,12.17
2018-04-24T08:41:46.370Z,12.19
2018-04-24T08:44:53.591Z,12.20
2018-04-24T08:47:59.433Z,12.19
2018-04-24T08:51:06.759Z,12.19
2018-04-24T08:54:12.552Z,12.18
2018-04-24T08:57:18.769Z,12.17
2018-04-24T09:00:24.078Z,12.18
2018-04-24T09:03:30.902Z,12.23
2018-04-24T09:06:37.112Z,12.22
2018-04-24T09:09:42.396Z,12.19
2018-04-24T09:12:47.669Z,12.17
2018-04-24T09:15:52.953Z,12.16
2018-04-24T09:18:58.252Z,12.20
2018-04-24T09:22:04.449Z,12.19
2018-04-24T09:25:09.495Z,12.16
2018-04-24T09:28:14.782Z,12.16
2018-04-24T09:31:21.781Z,12.16
2018-04-24T09:34:27.620Z,12.19
2018-04-24T09:37:32.885Z,12.20
2018-04-24T09:40:38.193Z,12.20
2018-04-24T09:43:43.473Z,12.20
2018-04-24T09:46:48.780Z,12.27
2018-04-24T09:49:54.968Z,12.26
2018-04-24T09:53:00.242Z,12.30
2018-04-24T09:56:05.533Z,12.29
2018-04-24T09:59:10.541Z,12.31
2018-04-24T10:02:16.393Z,12.31
2018-04-24T10:05:22.712Z,12.31
2018-04-24T10:08:27.740Z,12.32
2018-04-24T10:11:33.964Z,12.32
2018-04-24T10:14:39.232Z,12.35
2018-04-24T10:17:44.937Z,12.37
2018-04-24T10:20:50.210Z,12.41
2018-04-24T10:23:55.480Z,12.43
2018-04-24T10:27:02.615Z,12.45
2018-04-24T10:30:07.908Z,12.46
2018-04-24T10:33:13.181Z,12.48
2018-04-24T10:36:18.461Z,12.50
2018-04-24T10:39:23.721Z,12.51
2018-04-24T10:42:29.818Z,12.52
2018-04-24T10:45:36.004Z,12.56
2018-04-24T10:48:42.110Z,12.58
2018-04-24T10:51:49.265Z,12.58
2018-04-24T10:54:54.757Z,12.58
2018-04-24T10:58:00.039Z,12.58
2018-04-24T11:01:05.036Z,12.59
2018-04-24T11:04:10.053Z,12.59
2018-04-24T11:07:15.342Z,12.57
2018-04-24T11:10:20.603Z,12.55
2018-04-24T11:13:26.525Z,12.56
2018-04-24T11:16:31.806Z,12.52
2018-04-24T11:19:37.992Z,12.53
2018-04-24T11:22:43.844Z,12.47
2018-04-24T11:25:49.993Z,12.48
2018-04-24T11:28:56.186Z,12.45
2018-04-24T11:32:02.288Z,12.44
2018-04-24T11:35:08.209Z,12.50
2018-04-24T11:38:14.397Z,12.46
2018-04-24T11:41:19.718Z,12.43
2018-04-24T11:44:25.182Z,12.40
2018-04-24T11:47:31.113Z,12.41
2018-04-24T11:50:37.289Z,12.30
2018-04-24T11:53:43.389Z,12.26
2018-04-24T11:56:49.385Z,12.20
2018-04-24T11:59:54.662Z,12.17
2018-04-24T12:02:59.928Z,12.17
2018-04-24T12:06:04.868Z,12.18
2018-04-24T12:09:10.756Z,12.16
2018-04-24T12:12:16.023Z,12.17
2018-04-24T12:15:22.309Z,12.17
2018-04-24T12:18:28.146Z,12.16
2018-04-24T12:21:34.329Z,12.16
2018-04-24T12:24:39.597Z,12.17
2018-04-24T12:27:45.805Z,12.16
2018-04-24T12:30:51.080Z,12.17
2018-04-24T12:33:56.336Z,12.18
2018-04-24T12:37:01.604Z,12.19
2018-04-24T12:40:07.816Z,12.18
2018-04-24T12:43:13.081Z,12.17
2018-04-24T12:46:18.783Z,12.17
2018-04-24T12:49:24.052Z,12.19
2018-04-24T12:52:29.309Z,12.21
2018-04-24T12:55:34.618Z,12.26
2018-04-24T12:58:40.312Z,12.32
2018-04-24T13:01:46.201Z,12.37
2018-04-24T13:04:52.085Z,12.41
2018-04-24T13:07:57.956Z,12.45
2018-04-24T13:11:03.972Z,12.53
2018-04-24T13:14:09.966Z,12.57
2018-04-24T13:17:15.237Z,12.63
2018-04-24T13:20:21.418Z,12.68
2018-04-24T13:23:27.053Z,12.72
2018-04-24T13:26:33.276Z,12.75
2018-04-24T13:29:39.165Z,12.76
2018-04-24T13:32:45.268Z,12.79
2018-04-24T13:35:51.495Z,12.80
2018-04-24T13:38:57.637Z,12.81
2018-04-24T13:42:03.796Z,12.81
2018-04-24T13:45:09.717Z,12.81
2018-04-24T13:48:15.613Z,12.84
2018-04-24T13:51:21.705Z,12.84
2018-04-24T13:54:27.693Z,12.86
2018-04-24T13:57:33.901Z,12.87
2018-04-24T14:00:39.213Z,12.89
2018-04-24T14:03:45.990Z,12.89
2018-04-24T14:06:51.267Z,12.91
2018-04-24T14:09:57.469Z,12.92
2018-04-24T14:13:03.823Z,12.94
2018-04-24T14:16:09.776Z,12.94
2018-04-24T14:19:15.047Z,12.94
2018-04-24T14:22:20.433Z,12.94
2018-04-24T14:25:25.705Z,12.96
2018-04-24T14:28:31.901Z,12.95
2018-04-24T14:31:37.945Z,12.94
2018-04-24T14:34:43.688Z,12.94
2018-04-24T14:37:48.962Z,12.93
2018-04-24T14:40:54.233Z,12.90
2018-04-24T14:43:59.505Z,12.90
2018-04-24T14:47:04.449Z,12.90
2018-04-24T14:50:09.782Z,12.89
2018-04-24T14:53:15.694Z,12.89
2018-04-24T14:56:21.875Z,12.88
2018-04-24T14:59:28.098Z,12.89
2018-04-24T15:02:34.284Z,12.89
2018-04-24T15:05:40.501Z,12.90
2018-04-24T15:08:46.574Z,12.93
2018-04-24T15:11:52.778Z,12.98
2018-04-24T15:14:58.049Z,13.03
2018-04-24T15:18:03.377Z,13.06
2018-04-24T15:21:09.565Z,13.10
2018-04-24T15:24:15.559Z,13.14
2018-04-24T15:27:20.848Z,13.19
2018-04-24T15:30:26.934Z,13.25
2018-04-24T15:33:33.079Z,13.28
2018-04-24T15:36:38.965Z,13.31
2018-04-24T15:39:45.138Z,13.34
2018-04-24T15:42:51.133Z,13.37
2018-04-24T15:45:57.318Z,13.40
2018-04-24T15:49:03.409Z,13.42
2018-04-24T15:52:09.313Z,13.44
2018-04-24T15:55:15.496Z,13.48
2018-04-24T15:58:21.487Z,13.50
2018-04-24T16:01:27.371Z,13.54
2018-04-24T16:04:33.453Z,13.56
2018-04-24T16:07:39.560Z,13.57
2018-04-24T16:10:46.334Z,13.58
2018-04-24T16:13:51.695Z,13.57
2018-04-24T16:16:57.990Z,13.59
2018-04-24T16:20:03.257Z,13.58
2018-04-24T16:23:09.491Z,13.58
2018-04-24T16:26:14.819Z,13.58
2018-04-24T16:29:20.097Z,13.58
2018-04-24T16:32:26.159Z,13.56
2018-04-24T16:35:31.991Z,13.55
2018-04-24T16:38:37.962Z,13.53
2018-04-24T16:41:44.992Z,13.51
2018-04-24T16:44:50.261Z,13.50
2018-04-24T16:47:55.537Z,13.48
2018-04-24T16:51:00.836Z,13.46
2018-04-24T16:54:07.041Z,13.45
2018-04-24T16:57:12.312Z,13.44
2018-04-24T17:00:18.409Z,13.43
2018-04-24T17:03:23.681Z,13.40
2018-04-24T17:06:29.870Z,13.38
2018-04-24T17:09:35.135Z,13.36
2018-04-24T17:12:40.416Z,13.34
2018-04-24T17:15:45.746Z,13.32
2018-04-24T17:18:51.962Z,13.29
2018-04-24T17:21:56.997Z,13.26
2018-04-24T17:25:02.349Z,13.23
2018-04-24T17:28:08.585Z,13.20
2018-04-24T17:31:14.629Z,13.18
2018-04-24T17:34:20.630Z,13.15
2018-04-24T17:37:26.810Z,13.11
2018-04-24T17:40:32.117Z,13.08
2018-04-24T17:43:37.383Z,13.05
2018-04-24T17:46:42.658Z,13.03
2018-04-24T17:49:47.945Z,12.99
2018-04-24T17:52:54.196Z,12.96
2018-04-24T17:56:00.173Z,12.94
2018-04-24T17:59:05.477Z,12.90
2018-04-24T18:02:10.759Z,12.86
2018-04-24T18:05:16.079Z,12.82
2018-04-24T18:08:21.374Z,12.77
2018-04-24T18:11:26.667Z,12.72
2018-04-24T18:14:33.032Z,12.67
2018-04-24T18:17:38.349Z,12.65
2018-04-24T18:20:43.661Z,12.62
2018-04-24T18:23:50.352Z,12.57
2018-04-24T18:26:56.364Z,12.53
2018-04-24T18:30:02.173Z,12.50
2018-04-24T18:33:08.177Z,12.46
2018-04-24T18:36:14.278Z,12.41
2018-04-24T18:39:20.493Z,12.36
2018-04-24T18:42:25.811Z,12.33
2018-04-24T18:45:30.842Z,12.31
2018-04-24T18:48:36.186Z,12.29
2018-04-24T18:51:41.478Z,12.27
2018-04-24T18:54:47.477Z,12.23
2018-04-24T18:57:53.625Z,12.16
2018-04-24T19:00:58.911Z,12.11
2018-04-24T19:04:04.434Z,12.10
2018-04-24T19:07:10.649Z,12.05
2018-04-24T19:10:15.914Z,12.04
2018-04-24T19:13:21.271Z,12.02
2018-04-24T19:16:26.705Z,11.99
2018-04-24T19:19:31.650Z,11.96
2018-04-24T19:22:36.909Z,11.94
2018-04-24T19:25:43.483Z,11.93
2018-04-24T19:28:49.697Z,11.90
2018-04-24T19:32:00.789Z,11.87
2018-04-24T19:35:06.917Z,11.85
2018-04-24T19:38:13.062Z,11.80
2018-04-24T19:41:24.402Z,11.79
2018-04-24T19:44:30.217Z,11.78
2018-04-24T19:47:35.500Z,11.75
2018-04-24T19:50:41.918Z,11.73
2018-04-24T19:53:47.217Z,11.71
2018-04-24T19:56:52.705Z,11.68
2018-04-24T19:59:57.986Z,11.67
2018-04-24T20:03:02.977Z,11.56
2018-04-24T20:06:08.240Z,11.48
2018-04-24T20:09:13.547Z,11.41
2018-04-24T20:12:20.334Z,11.42
2018-04-24T20:15:26.349Z,11.40
2018-04-24T20:18:33.000Z,11.35
2018-04-24T20:21:39.203Z,11.33
2018-04-24T20:24:45.496Z,11.32
2018-04-24T20:27:50.761Z,11.29
2018-04-24T20:30:57.693Z,11.27
2018-04-24T20:34:03.574Z,11.23
2018-04-24T20:37:09.566Z,11.19
2018-04-24T20:40:15.341Z,11.15
2018-04-24T20:43:21.382Z,11.07
2018-04-24T20:46:28.581Z,11.01
2018-04-24T20:49:34.166Z,10.99
2018-04-24T20:52:40.461Z,10.95
2018-04-24T20:55:46.258Z,10.92
2018-04-24T20:58:52.269Z,10.91
2018-04-24T21:01:58.101Z,10.91
2018-04-24T21:05:03.749Z,10.90
2018-04-24T21:08:09.596Z,10.87
2018-04-24T21:11:15.776Z,10.86
2018-04-24T21:14:22.553Z,10.85
2018-04-24T21:17:28.666Z,10.85
2018-04-24T21:20:33.700Z,10.87
2018-04-24T21:23:39.897Z,10.85
2018-04-24T21:26:45.828Z,10.86
2018-04-24T21:29:51.902Z,10.83
2018-04-24T21:32:57.875Z,10.82
2018-04-24T21:36:03.145Z,10.82
2018-04-24T21:39:09.093Z,10.81
2018-04-24T21:42:14.365Z,10.79
2018-04-24T21:45:20.185Z,10.80
2018-04-24T21:48:25.458Z,10.73
2018-04-24T21:51:30.709Z,10.71
2018-04-24T21:54:36.594Z,10.71
2018-04-24T21:57:42.681Z,10.70
2018-04-24T22:00:48.778Z,10.70
2018-04-24T22:03:54.744Z,10.68
2018-04-24T22:07:00.005Z,10.68
2018-04-24T22:10:06.105Z,10.68
2018-04-24T22:13:12.312Z,10.67
2018-04-24T22:16:18.508Z,10.65
2018-04-24T22:19:23.769Z,10.65
2018-04-24T22:22:29.697Z,10.65
2018-04-24T22:25:35.745Z,10.64
2018-04-24T22:28:41.991Z,10.63
2018-04-24T22:31:47.950Z,10.62
2018-04-24T22:34:54.048Z,10.60
2018-04-24T22:37:59.948Z,10.60
2018-04-24T22:41:05.845Z,10.59
2018-04-24T22:44:11.893Z,10.59
2018-04-24T22:47:17.957Z,10.57
2018-04-24T22:50:23.933Z,10.57
2018-04-24T22:53:29.712Z,10.56
2018-04-24T22:56:35.889Z,10.55
2018-04-24T22:59:42.926Z,10.55
2018-04-24T23:02:48.212Z,10.53
2018-04-24T23:05:53.205Z,10.52
2018-04-24T23:08:58.177Z,10.51
2018-04-24T23:12:15.244Z,10.51
2018-04-24T23:15:38.030Z,10.49
2018-04-24T23:19:00.013Z,10.49
2018-04-24T23:22:16.608Z,10.48
2018-04-24T23:25:22.217Z,10.46
2018-04-24T23:28:27.929Z,10.46
2018-04-24T23:31:33.261Z,10.44
2018-04-24T23:34:37.966Z,10.44
2018-04-24T23:37:43.540Z,10.42
2018-04-24T23:40:49.801Z,10.42
2018-04-24T23:43:54.750Z,10.40
2018-04-24T23:46:59.703Z,10.40
2018-04-24T23:50:04.534Z,10.37
2018-04-24T23:53:10.414Z,10.39
2018-04-24T23:56:16.202Z,10.38
2018-04-24T23:59:21.479Z,10.37
